createdAt,value
2023-04-16T00:02:13.126Z,13.15
2023-04-16T00:07:14.768Z,14.60
2023-04-16T00:12:17.021Z,10.98
2023-04-16T00:17:18.540Z,17.80
2023-04-16T00:22:20.128Z,15.80
2023-04-16T00:27:21.647Z,11.40
2023-04-16T00:32:23.190Z,13.88
2023-04-16T00:37:24.722Z,13.05
2023-04-16T00:42:26.308Z,12.73
2023-04-16T00:47:28.140Z,16.10
2023-04-16T00:52:31.465Z,20.23
2023-04-16T00:57:32.947Z,16.95
2023-04-16T01:02:34.783Z,16.70
2023-04-16T01:07:36.861Z,10.48
2023-04-16T01:12:38.419Z,19.20
2023-04-16T01:17:39.967Z,19.63
2023-04-16T01:22:42.537Z,21.10
2023-04-16T01:27:44.058Z,19.50
2023-04-16T01:32:45.629Z,17.20
2023-04-16T01:37:47.123Z,21.15
2023-04-16T01:42:48.567Z,23.65
2023-04-16T01:47:51.221Z,18.30
2023-04-16T01:52:52.840Z,21.70
2023-04-16T01:57:54.390Z,16.83
2023-04-16T02:02:56.284Z,16.77
2023-04-16T02:07:57.958Z,18.80
2023-04-16T02:12:59.496Z,22.67
2023-04-16T02:18:01.146Z,28.88
2023-04-16T02:23:02.655Z,26.90
2023-04-16T02:28:04.257Z,24.52
2023-04-16T02:33:07.426Z,24.77
2023-04-16T02:38:09.057Z,26.13
2023-04-16T02:43:10.747Z,26.27
2023-04-16T02:48:12.297Z,28.50
2023-04-16T02:53:13.884Z,28.80
2023-04-16T02:58:15.438Z,27.50
2023-04-16T03:03:17.020Z,22.58
2023-04-16T03:08:18.574Z,25.38
2023-04-16T03:13:20.224Z,28.33
2023-04-16T03:18:21.762Z,19.90
2023-04-16T03:23:23.272Z,25.10
2023-04-16T03:28:24.839Z,29.33
2023-04-16T03:33:26.306Z,20.98
2023-04-16T03:38:27.840Z,26.50
2023-04-16T03:43:29.315Z,21.65
2023-04-16T03:48:30.782Z,26.25
2023-04-16T03:53:32.285Z,24.83
2023-04-16T03:58:33.794Z,24.35
2023-04-16T04:03:35.489Z,26.25
2023-04-16T04:08:37.063Z,26.23
2023-04-16T04:13:38.799Z,25.40
2023-04-16T04:18:40.312Z,21.52
2023-04-16T04:23:42.487Z,32.45
2023-04-16T04:28:44.108Z,26.23
2023-04-16T04:33:45.740Z,27.45
2023-04-16T04:38:47.281Z,27.38
2023-04-16T04:43:48.781Z,27.20
2023-04-16T04:48:50.556Z,29.20
2023-04-16T04:53:52.155Z,26.95
2023-04-16T04:58:53.688Z,29.98
2023-04-16T05:03:55.503Z,23.48
2023-04-16T05:08:57.175Z,25.20
2023-04-16T05:13:58.642Z,25.77
2023-04-16T05:19:00.462Z,22.08
2023-04-16T05:24:02.053Z,21.00
2023-04-16T05:29:03.548Z,20.83
2023-04-16T05:34:05.002Z,19.50
2023-04-16T05:39:07.749Z,23.70
2023-04-16T05:44:09.435Z,23.33
2023-04-16T05:49:11.567Z,19.08
2023-04-16T05:54:13.319Z,18.27
2023-04-16T05:59:14.852Z,12.73
2023-04-16T06:04:16.520Z,13.98
2023-04-16T06:09:18.938Z,15.32
2023-04-16T06:14:20.507Z,14.45
2023-04-16T06:19:22.376Z,9.82
2023-04-16T06:24:23.940Z,11.57
2023-04-16T06:29:37.028Z,8.95
2023-04-16T06:34:42.547Z,8.95
2023-04-16T06:39:44.188Z,7.13
2023-04-16T06:44:46.578Z,7.18
2023-04-16T06:49:48.068Z,6.45
2023-04-16T06:54:49.590Z,7.75
2023-04-16T06:59:51.173Z,4.65
2023-04-16T07:04:52.646Z,6.35
2023-04-16T07:09:54.199Z,8.27
2023-04-16T07:14:55.700Z,5.85
2023-04-16T07:19:57.192Z,7.07
2023-04-16T07:24:58.658Z,8.32
2023-04-16T07:30:00.218Z,9.57
2023-04-16T07:35:01.875Z,8.50
2023-04-16T07:40:04.449Z,7.90
2023-04-16T07:45:06.496Z,11.50
2023-04-16T07:50:08.403Z,11.18
2023-04-16T07:55:10.053Z,11.73
2023-04-16T08:00:12.067Z,18.73
2023-04-16T08:05:13.668Z,14.27
2023-04-16T08:10:15.669Z,25.70
2023-04-16T08:15:17.250Z,15.50
2023-04-16T08:20:19.488Z,19.48
2023-04-16T08:25:21.417Z,22.80
2023-04-16T08:30:23.021Z,31.38
2023-04-16T08:35:24.569Z,26.73
2023-04-16T08:40:29.562Z,26.92
2023-04-16T08:45:34.878Z,31.67
2023-04-16T08:50:36.597Z,23.92
2023-04-16T08:55:49.120Z,24.30
2023-04-16T09:00:51.502Z,15.82
2023-04-16T09:05:55.485Z,21.80
2023-04-16T09:10:57.203Z,12.73
2023-04-16T09:15:59.720Z,13.00
2023-04-16T09:21:01.203Z,16.10
2023-04-16T09:26:04.798Z,15.68
2023-04-16T09:31:11.261Z,17.85
2023-04-16T09:36:12.831Z,18.08
2023-04-16T09:41:18.037Z,22.77
2023-04-16T09:46:19.599Z,18.65
2023-04-16T09:51:21.097Z,31.85
2023-04-16T09:56:30.412Z,30.02
2023-04-16T10:01:31.957Z,34.17
2023-04-16T10:06:34.544Z,37.40
2023-04-16T10:11:36.088Z,36.72
2023-04-16T10:16:40.010Z,36.53
2023-04-16T10:21:41.885Z,38.63
2023-04-16T10:26:44.775Z,47.58
2023-04-16T10:31:47.670Z,43.47
2023-04-16T10:36:53.707Z,35.55
2023-04-16T10:42:12.221Z,29.70
2023-04-16T10:47:14.385Z,32.63
2023-04-16T10:52:19.477Z,33.40
2023-04-16T10:57:21.648Z,27.30
2023-04-16T11:02:29.031Z,34.03
2023-04-16T11:12:38.508Z,25.63
2023-04-16T11:17:45.072Z,25.48
2023-04-16T11:22:47.131Z,25.83
2023-04-16T11:27:49.371Z,23.55
2023-04-16T11:32:51.646Z,24.63
2023-04-16T11:37:57.132Z,24.27
2023-04-16T11:43:15.332Z,25.50
2023-04-16T11:48:16.892Z,26.30
2023-04-16T11:53:18.420Z,23.63
2023-04-16T11:58:22.071Z,31.95
2023-04-16T12:03:47.003Z,29.08
2023-04-16T12:08:48.922Z,30.05
2023-04-16T12:14:09.708Z,28.70
2023-04-16T12:19:12.957Z,22.00
2023-04-16T12:24:24.030Z,23.90
2023-04-16T12:29:27.503Z,23.88
2023-04-16T12:34:48.415Z,27.92
2023-04-16T12:39:50.668Z,25.58
2023-04-16T12:44:52.128Z,29.42
2023-04-16T12:49:53.981Z,25.75
2023-04-16T12:54:55.565Z,21.95
2023-04-16T12:59:58.262Z,25.33
2023-04-16T13:05:00.016Z,23.60
2023-04-16T13:10:01.633Z,24.88
2023-04-16T13:15:03.317Z,23.98
2023-04-16T13:20:05.227Z,29.52
2023-04-16T13:25:07.441Z,29.10
2023-04-16T13:30:09.433Z,25.65
2023-04-16T13:35:11.800Z,25.17
2023-04-16T13:40:13.329Z,30.67
2023-04-16T13:45:14.900Z,27.98
2023-04-16T13:50:17.678Z,27.27
2023-04-16T13:55:19.298Z,23.60
2023-04-16T14:00:20.885Z,22.70
2023-04-16T14:05:25.182Z,27.52
2023-04-16T14:10:28.121Z,41.50
2023-04-16T14:15:30.003Z,31.45
2023-04-16T14:20:31.733Z,37.78
2023-04-16T14:25:33.949Z,29.40
2023-04-16T14:30:35.605Z,31.30
2023-04-16T14:35:37.176Z,30.10
2023-04-16T14:40:38.788Z,33.28
2023-04-16T14:45:40.835Z,33.80
2023-04-16T14:50:44.060Z,29.85
2023-04-16T14:55:45.757Z,27.45
2023-04-16T15:00:47.272Z,26.75
2023-04-16T15:05:54.794Z,30.77
2023-04-16T15:10:56.777Z,28.25
2023-04-16T15:15:58.416Z,29.35
2023-04-16T15:20:59.956Z,29.50
2023-04-16T15:26:01.419Z,33.78
2023-04-16T15:31:02.960Z,32.55
2023-04-16T15:36:04.911Z,35.95
2023-04-16T15:41:06.635Z,34.63
2023-04-16T15:46:08.840Z,34.60
2023-04-16T15:51:11.005Z,33.00
2023-04-16T15:56:14.079Z,31.83
2023-04-16T16:01:15.660Z,32.75
2023-04-16T16:06:18.255Z,32.45
2023-04-16T16:11:19.986Z,32.33
2023-04-16T16:16:21.867Z,28.73
2023-04-16T16:21:26.401Z,30.15
2023-04-16T16:26:28.075Z,29.80
2023-04-16T16:31:31.083Z,31.45
2023-04-16T16:36:36.562Z,33.28
2023-04-16T16:41:41.974Z,30.40
2023-04-16T16:46:43.562Z,28.20
2023-04-16T16:51:46.431Z,33.72
2023-04-16T16:56:47.939Z,25.02
2023-04-16T17:01:49.516Z,29.58
2023-04-16T17:06:51.179Z,32.30
2023-04-16T17:11:52.744Z,31.35
2023-04-16T17:16:54.603Z,35.08
2023-04-16T17:21:56.340Z,33.33
2023-04-16T17:26:58.502Z,34.80
2023-04-16T17:32:00.147Z,30.45
2023-04-16T17:37:01.777Z,36.28
2023-04-16T17:42:03.969Z,30.48
2023-04-16T17:47:05.675Z,33.28
2023-04-16T17:52:07.264Z,39.97
2023-04-16T17:57:08.806Z,41.50
2023-04-16T18:02:10.540Z,40.30
2023-04-16T18:07:12.318Z,35.70
2023-04-16T18:12:13.801Z,28.92
2023-04-16T18:17:15.617Z,33.28
2023-04-16T18:22:17.135Z,37.08
2023-04-16T18:27:18.843Z,38.88
2023-04-16T18:32:20.374Z,36.50
2023-04-16T18:37:21.965Z,36.45
2023-04-16T18:42:29.548Z,39.80
2023-04-16T18:47:31.128Z,27.73
2023-04-16T18:52:32.669Z,30.40
2023-04-16T18:57:34.245Z,34.33
2023-04-16T19:02:35.948Z,37.08
2023-04-16T19:07:37.867Z,35.90
2023-04-16T19:12:39.387Z,40.97
2023-04-16T19:17:40.896Z,35.17
2023-04-16T19:22:42.407Z,38.75
2023-04-16T19:27:43.930Z,35.03
2023-04-16T19:32:45.465Z,33.30
2023-04-16T19:37:46.977Z,33.58
2023-04-16T19:42:48.515Z,36.03
2023-04-16T19:47:51.141Z,30.50
2023-04-16T19:52:52.806Z,34.90
2023-04-16T19:57:54.324Z,31.65
2023-04-16T20:02:56.096Z,30.42
2023-04-16T20:07:57.738Z,41.35
2023-04-16T20:12:59.311Z,37.20
2023-04-16T20:18:00.911Z,37.53
2023-04-16T20:23:03.837Z,36.55
2023-04-16T20:28:05.470Z,39.63
2023-04-16T20:33:07.583Z,33.42
2023-04-16T20:38:09.198Z,35.65
2023-04-16T20:43:14.225Z,39.40
2023-04-16T20:48:15.978Z,35.80
2023-04-16T20:53:17.556Z,37.22
2023-04-16T20:58:19.030Z,37.47
2023-04-16T21:03:21.578Z,33.45
2023-04-16T21:08:23.807Z,34.83
2023-04-16T21:13:25.566Z,37.85
2023-04-16T21:18:27.196Z,35.35
2023-04-16T21:23:28.737Z,35.75
2023-04-16T21:28:30.278Z,32.97
2023-04-16T21:33:31.790Z,40.35
2023-04-16T21:38:33.378Z,39.45
2023-04-16T21:43:34.905Z,35.35
2023-04-16T21:48:36.448Z,38.55
2023-04-16T21:53:39.083Z,41.05
2023-04-16T21:58:40.600Z,33.65
2023-04-16T22:03:42.316Z,34.53
2023-04-16T22:08:44.094Z,39.90
2023-04-16T22:13:47.501Z,34.10
2023-04-16T22:18:49.425Z,29.88
2023-04-16T22:23:50.906Z,31.25
2023-04-16T22:28:52.436Z,38.60
2023-04-16T22:33:53.904Z,38.70
2023-04-16T22:38:55.387Z,37.70
2023-04-16T22:43:56.894Z,29.48
2023-04-16T22:48:58.396Z,32.80
2023-04-16T22:53:59.963Z,43.67
2023-04-16T22:59:01.423Z,34.53
2023-04-16T23:04:02.938Z,33.60
2023-04-16T23:09:05.192Z,34.42
2023-04-16T23:14:07.616Z,38.80
2023-04-16T23:19:14.707Z,36.00
2023-04-16T23:24:17.140Z,33.13
2023-04-16T23:29:18.695Z,47.75
2023-04-16T23:34:20.205Z,37.83
2023-04-16T23:39:21.722Z,35.72
2023-04-16T23:44:23.246Z,44.75
2023-04-16T23:49:24.877Z,40.45
2023-04-16T23:54:26.413Z,44.60
2023-04-16T23:59:27.972Z,47.30
